Providence, Rhode Island
Traffic Map
Current Weather Conditions
Providence, Rhode Island
Overcast
Overcast
17°
Feels Like: 17°
Wind Chill: 17° Ceiling: 30000
Heat Index: 17° Visibility: 10mi
Dew Point: 15° Wind: 3mph
Humidity: 87% Direction: 170° (S)
Pressure: 30.26in Gusts: 0mph
Raw Report DataKPVD 300151Z 17003KT 10SM OVC300 17/15 A3026 RMK AO2 SLP247 T01720150
Traffic Incident Summary
Active as of:
Severity:
Category:
InformationThere was an issue retrieving the traffic information for this location. Please try a different location or try again shortly.
Advertisements
Track Severe Weather on mobile